Lakeridge, Washington
Current Conditions -  °F | °C
As of 2:58 AM on Thursday 23 Oct 2014 (Local Time) from KTCM Reporting Station
Overcast Overcast  
Wind Chill: 52°   Ceiling: 6500
Heat Index: 52°   Visibility: 10mi
Dew Point: 50°   Wind: 2mph
Humidity: 95%   Direction: 160°SSE
Pressure: 29.73"   Gusts: NA
Location:  47.1874°N, 122.164°W
Report Text: KTCM 230958Z AUTO 16002KT 10SM SCT047 BKN065 OVC080 11/10 A2973 RMK AO2 RAB0905E0930 SLP071 P0000 T01100102 $
Loading
Personal Weather Stations






























Interactive Weather Map
Tropical Storm Tracking
New forecast layout! Learn more

10-Day Weather Forecast

Advertisements
Track Severe Weather on mobile